Time;durP1;ratioP1;P1;durP2;ratioP2;P2;SDS_P1;SDS_P2;PMS_P1;PMS_P2;Temp;Humidity;BMP_temperature;BMP_pressure;BME280_temperature;BME280_humidity;BME280_pressure;Samples;Min_cycle;Max_cycle;Signal;HPM_P1;HPM_P2
2022/01/27 00:05:08;;;;;;;26.88;10.40;;;;;;;;;;5094389;28;20046;-82
2022/01/27 00:07:34;;;;;;;25.05;11.82;;;;;;;;;;5075212;28;20142;-82
2022/01/27 00:10:32;;;;;;;31.30;11.05;;;;;;;;;;5095670;28;20035;-82
2022/01/27 00:12:47;;;;;;;28.27;11.02;;;;;;;;;;5097129;28;20086;-82
2022/01/27 00:15:14;;;;;;;28.17;13.38;;;;;;;;;;5092258;28;20440;-82
2022/01/27 00:17:48;;;;;;;24.05;13.02;;;;;;;;;;5096714;28;20062;-81
2022/01/27 00:20:15;;;;;;;25.58;11.00;;;;;;;;;;5077974;28;20409;-82
2022/01/27 00:22:42;;;;;;;30.23;10.20;;;;;;;;;;5092545;28;20593;-82
2022/01/27 00:25:09;;;;;;;28.38;11.68;;;;;;;;;;5078608;28;20113;-82
2022/01/27 00:27:35;;;;;;;18.45;9.40;;;;;;;;;;5098683;28;20027;-82
2022/01/27 00:30:03;;;;;;;31.83;12.32;;;;;;;;;;5093515;28;20043;-82
2022/01/27 00:32:30;;;;;;;34.83;14.18;;;;;;;;;;5087122;28;20425;-82
2022/01/27 00:34:57;;;;;;;25.88;9.93;;;;;;;;;;5092701;28;20039;-82
2022/01/27 00:37:23;;;;;;;16.63;8.70;;;;;;;;;;5076298;28;20653;-82
2022/01/27 00:39:49;;;;;;;26.77;10.80;;;;;;;;;;5099067;28;20098;-82
2022/01/27 00:42:15;;;;;;;24.70;9.48;;;;;;;;;;5098958;28;20070;-82
2022/01/27 00:44:42;;;;;;;28.25;13.00;;;;;;;;;;5080314;28;20484;-82
2022/01/27 00:47:08;;;;;;;30.00;11.65;;;;;;;;;;5098469;28;20044;-82
2022/01/27 00:49:36;;;;;;;23.75;11.02;;;;;;;;;;5089057;28;20085;-82
2022/01/27 00:52:03;;;;;;;28.33;12.25;;;;;;;;;;5088787;28;20036;-82
2022/01/27 00:54:30;;;;;;;23.77;9.50;;;;;;;;;;5100216;27;20039;-82
2022/01/27 00:57:13;;;;;;;26.52;12.55;;;;;;;;;;5097026;27;20050;-82
2022/01/27 00:59:56;;;;;;;30.40;13.95;;;;;;;;;;5084878;27;20369;-82
2022/01/27 01:05:01;;;;;;;24.23;12.73;;;;;;;;;;5093307;28;20051;-82
2022/01/27 01:07:33;;;;;;;32.08;11.65;;;;;;;;;;5081168;27;20123;-83
2022/01/27 01:15:35;;;;;;;36.75;13.35;;;;;;;;;;5098859;27;20045;-82
2022/01/27 01:32:06;;;;;;;22.70;10.00;;;;;;;;;;5093699;27;20043;-82
2022/01/27 01:34:33;;;;;;;25.38;11.52;;;;;;;;;;5083327;27;20062;-82
2022/01/27 01:37:05;;;;;;;29.25;13.32;;;;;;;;;;5102940;27;20092;-82
2022/01/27 01:39:33;;;;;;;24.48;11.25;;;5.80;60.00;;;;;;5109850;27;20046;-82
2022/01/27 01:42:00;;;;;;;33.60;14.30;;;;;;;;;;5107897;27;20126;-81
2022/01/27 01:44:27;;;;;;;27.50;13.45;;;;;;;;;;5096550;27;20122;-82
2022/01/27 01:46:55;;;;;;;28.77;12.45;;;5.80;42.10;;;;;;5094143;27;20039;-80
2022/01/27 01:49:26;;;;;;;31.48;15.05;;;;;;;;;;5095750;27;20039;-81
2022/01/27 01:51:52;;;;;;;26.10;13.90;;;;;;;;;;5101376;27;20034;-82
2022/01/27 01:54:18;;;;;;;26.92;11.75;;;;;;;;;;5090878;28;20538;-81
2022/01/27 01:56:44;;;;;;;25.13;11.30;;;;;;;;;;5095563;27;20047;-81
2022/01/27 01:59:10;;;;;;;35.97;14.57;;;;;;;;;;5070407;27;20039;-80
2022/01/27 02:01:37;;;;;;;31.50;15.65;;;6.00;46.90;;;;;;5102114;27;20122;-81
2022/01/27 02:04:07;;;;;;;30.60;13.60;;;;;;;;;;5098758;27;20475;-81
2022/01/27 02:06:40;;;;;;;30.90;13.38;;;;;;;;;;5075585;28;20049;-81
2022/01/27 02:19:50;;;;;;;24.40;12.33;;;;;;;;;;5087924;28;20101;-81
2022/01/27 02:22:18;;;;;;;31.83;14.20;;;6.20;24.80;;;;;;5084354;28;20415;-82
2022/01/27 02:24:44;;;;;;;26.35;13.18;;;;;;;;;;5092673;28;20101;-82
2022/01/27 02:27:10;;;;;;;32.88;15.77;;;;;;;;;;5096811;28;20040;-82
2022/01/27 02:29:36;;;;;;;35.22;14.95;;;;;;;;;;5099247;28;20554;-81
2022/01/27 02:32:03;;;;;;;23.38;10.90;;;;;;;;;;5097535;28;20126;-82
2022/01/27 02:34:29;;;;;;;33.17;14.40;;;;;;;;;;5079883;28;20051;-82
2022/01/27 02:36:55;;;;;;;24.02;11.77;;;;;;;;;;5099169;27;20071;-82
2022/01/27 02:39:22;;;;;;;19.30;9.57;;;;;;;;;;5096685;28;20039;-82
2022/01/27 02:41:52;;;;;;;23.10;8.65;;;;;;;;;;5086189;28;20583;-82
2022/01/27 02:44:21;;;;;;;26.33;12.32;;;;;;;;;;5081557;28;20048;-82
2022/01/27 02:46:50;;;;;;;28.35;12.52;;;6.50;24.80;;;;;;5069679;28;20047;-82
2022/01/27 02:49:16;;;;;;;28.15;11.65;;;;;;;;;;5100315;27;20281;-83
2022/01/27 02:51:42;;;;;;;24.45;11.30;;;;;;;;;;5093769;28;20043;-82
2022/01/27 02:54:08;;;;;;;29.25;11.45;;;;;;;;;;5087688;28;20115;-82
2022/01/27 02:56:38;;;;;;;24.02;12.98;;;;;;;;;;5070973;28;20134;-82
2022/01/27 02:59:05;;;;;;;25.52;12.68;;;;;;;;;;5088364;28;20131;-81
2022/01/27 03:01:31;;;;;;;26.67;11.90;;;;;;;;;;5095004;28;20594;-81
2022/01/27 03:03:57;;;;;;;34.47;13.23;;;;;;;;;;5085936;28;20194;-81
2022/01/27 03:06:23;;;;;;;34.08;12.73;;;;;;;;;;5071621;28;20044;-81
2022/01/27 03:08:49;;;;;;;23.55;13.32;;;;;;;;;;5095054;28;20108;-81
2022/01/27 03:11:17;;;;;;;20.95;9.63;;;;;;;;;;5094762;28;20036;-81
2022/01/27 03:13:44;;;;;;;26.15;11.23;;;;;;;;;;5073429;28;20040;-81
2022/01/27 03:16:10;;;;;;;25.95;11.02;;;;;;;;;;5082561;28;20043;-81
2022/01/27 03:18:37;;;;;;;24.13;10.32;;;;;;;;;;5097689;28;20082;-81
2022/01/27 03:21:04;;;;;;;29.58;12.13;;;;;;;;;;5097148;28;20043;-81
2022/01/27 03:23:30;;;;;;;20.80;9.43;;;;;;;;;;5075033;28;20780;-81
2022/01/27 03:25:56;;;;;;;31.00;12.13;;;;;;;;;;5089006;28;20346;-82
2022/01/27 03:28:26;;;;;;;27.17;10.90;;;;;;;;;;5091140;28;20046;-81
2022/01/27 03:30:53;;;;;;;20.67;8.43;;;;;;;;;;5096228;28;20047;-81
2022/01/27 03:33:20;;;;;;;23.23;8.60;;;;;;;;;;5087110;28;20043;-82
2022/01/27 03:35:46;;;;;;;28.50;10.35;;;;;;;;;;5092730;28;20043;-81
2022/01/27 03:38:12;;;;;;;31.38;11.10;;;;;;;;;;5073934;28;20122;-82
2022/01/27 03:40:38;;;;;;;24.83;9.20;;;;;;;;;;5081221;28;20047;-81
2022/01/27 03:43:09;;;;;;;25.67;8.25;;;;;;;;;;5097151;28;20458;-82
2022/01/27 03:45:36;;;;;;;27.73;10.43;;;;;;;;;;5079615;28;20038;-82
2022/01/27 03:48:02;;;;;;;27.55;10.40;;;;;;;;;;5093154;28;20067;-82
2022/01/27 03:50:28;;;;;;;22.55;9.63;;;;;;;;;;5083032;28;20077;-82
2022/01/27 03:52:54;;;;;;;21.42;9.60;;;;;;;;;;5096340;28;20151;-82
2022/01/27 03:55:21;;;;;;;42.90;11.25;;;;;;;;;;5096732;28;20089;-82
2022/01/27 03:57:47;;;;;;;27.20;10.35;;;;;;;;;;5090931;28;20040;-82
2022/01/27 04:00:13;;;;;;;23.60;8.85;;;;;;;;;;5098268;28;20043;-81
2022/01/27 04:02:41;;;;;;;24.35;9.93;;;;;;;;;;5097997;28;20051;-81
2022/01/27 04:05:08;;;;;;;25.40;9.13;;;;;;;;;;5100264;28;20466;-81
2022/01/27 04:07:34;;;;;;;22.92;8.88;;;;;;;;;;5081876;27;20400;-82
2022/01/27 04:10:00;;;;;;;27.17;9.00;;;;;;;;;;5081338;28;20046;-81
2022/01/27 04:12:26;;;;;;;19.70;8.32;;;;;;;;;;5078795;28;20806;-81
2022/01/27 04:14:52;;;;;;;30.92;10.88;;;;;;;;;;5099310;28;20050;-82
2022/01/27 04:17:18;;;;;;;22.95;9.32;;;;;;;;;;5095192;28;20097;-82
2022/01/27 04:19:44;;;;;;;29.42;10.80;;;;;;;;;;5089799;28;20653;-82
2022/01/27 04:22:10;;;;;;;29.00;10.05;;;;;;;;;;5078985;28;20109;-82
2022/01/27 04:24:36;;;;;;;22.08;9.75;;;;;;;;;;5073602;28;20044;-81
2022/01/27 04:27:07;;;;;;;26.10;9.02;;;;;;;;;;5096163;28;20035;-82
2022/01/27 04:29:37;;;;;;;25.02;9.80;;;;;;;;;;5102244;28;20081;-82
2022/01/27 04:32:07;;;;;;;26.33;8.50;;;;;;;;;;5093880;28;20051;-83
2022/01/27 04:34:36;;;;;;;25.88;10.30;;;;;;;;;;5091194;28;20051;-82
2022/01/27 04:37:02;;;;;;;20.20;8.80;;;;;;;;;;5074517;28;20039;-82
2022/01/27 04:39:37;;;;;;;29.08;10.30;;;;;;;;;;5082090;28;20086;-83
2022/01/27 04:42:14;;;;;;;27.58;8.98;;;;;;;;;;5096715;28;20075;-83
2022/01/27 04:44:52;;;;;;;32.05;9.02;;;;;;;;;;5097604;28;20564;-83
2022/01/27 04:47:28;;;;;;;21.15;10.30;;;;;;;;;;5092996;27;20426;-83
2022/01/27 04:49:56;;;;;;;38.92;14.45;;;;;;;;;;5111581;27;20416;-83
2022/01/27 04:52:23;;;;;;;33.47;10.32;;;;;;;;;;5079027;28;20048;-83
2022/01/27 04:55:00;;;;;;;19.40;7.70;;;;;;;;;;5097132;28;20055;-83
2022/01/27 04:57:28;;;;;;;32.35;8.93;;;;;;;;;;5072010;28;20035;-83
2022/01/27 04:59:54;;;;;;;17.63;7.30;;;;;;;;;;5081068;28;20047;-83
2022/01/27 05:02:35;;;;;;;23.00;9.43;;;;;;;;;;5078114;28;20042;-84
2022/01/27 05:05:01;;;;;;;24.83;8.65;;;;;;;;;;5084397;28;20052;-84
2022/01/27 05:07:28;;;;;;;37.33;11.98;;;;;;;;;;5099634;27;20119;-84
2022/01/27 05:09:59;;;;;;;21.77;9.25;;;;;;;;;;5082867;27;20416;-84
2022/01/27 05:12:49;;;;;;;27.73;10.15;;;;;;;;;;5085692;28;20154;-85
2022/01/27 05:15:12;;;;;;;33.58;10.82;;;;;;;;;;5103206;28;20072;-85
2022/01/27 05:17:38;;;;;;;47.28;13.98;;;;;;;;;;5098903;28;20494;-85
2022/01/27 05:20:05;;;;;;;30.23;11.88;;;;;;;;;;5078272;28;20048;-85
2022/01/27 05:22:31;;;;;;;32.33;12.18;;;;;;;;;;5088517;28;20040;-86
2022/01/27 05:24:58;;;;;;;28.27;10.77;;;;;;;;;;5092724;28;20464;-86
2022/01/27 05:27:24;;;;;;;36.53;12.40;;;;;;;;;;5080371;28;20526;-86
2022/01/27 05:29:52;;;;;;;40.90;13.00;;;;;;;;;;5082242;28;20489;-86
2022/01/27 05:32:18;;;;;;;44.13;14.77;;;;;;;;;;5094514;28;20308;-87
2022/01/27 05:34:44;;;;;;;21.98;9.45;;;;;;;;;;5095352;28;20381;-86
2022/01/27 05:37:11;;;;;;;29.20;10.88;;;;;;;;;;5080229;28;20039;-86
2022/01/27 05:39:37;;;;;;;31.60;11.52;;;;;;;;;;5080841;28;20519;-85
2022/01/27 05:42:04;;;;;;;25.58;9.18;;;;;;;;;;5095974;28;20074;-86
2022/01/27 05:44:33;;;;;;;24.92;9.55;;;;;;;;;;5103678;28;20043;-87
2022/01/27 05:46:59;;;;;;;23.95;9.88;;;;;;;;;;5089338;28;20511;-88
2022/01/27 05:49:25;;;;;;;25.90;9.32;;;;;;;;;;5079391;28;20035;-87
2022/01/27 05:51:51;;;;;;;38.47;13.02;;;;;;;;;;5079472;28;20036;-86
2022/01/27 05:54:18;;;;;;;34.85;12.82;;;;;;;;;;5094794;28;20056;-86
2022/01/27 05:56:44;;;;;;;31.92;10.25;;;;;;;;;;5064402;28;20466;-86
2022/01/27 05:59:10;;;;;;;22.45;8.98;;;;;;;;;;5072056;28;20044;-88
2022/01/27 06:01:36;;;;;;;30.10;11.38;;;;;;;;;;5082707;28;20088;-85
2022/01/27 06:04:02;;;;;;;29.17;10.40;;;;;;;;;;5081045;28;20056;-87
2022/01/27 06:06:29;;;;;;;29.70;11.02;;;;;;;;;;5046224;28;20078;-86
2022/01/27 06:08:55;;;;;;;39.33;11.25;;;;;;;;;;5064271;28;20046;-86
2022/01/27 06:11:21;;;;;;;29.88;10.63;;;;;;;;;;5067533;28;20070;-87
2022/01/27 06:13:48;;;;;;;43.30;13.95;;;;;;;;;;5081636;28;20056;-87
2022/01/27 06:16:14;;;;;;;41.45;13.52;;;;;;;;;;5082856;28;20047;-84
2022/01/27 06:18:41;;;;;;;42.10;13.70;;;;;;;;;;5085709;28;20491;-84
2022/01/27 06:21:09;;;;;;;29.02;10.75;;;;;;;;;;5081643;28;20130;-84
2022/01/27 06:23:35;;;;;;;29.58;11.20;;;;;;;;;;5057027;28;20040;-84
2022/01/27 06:26:04;;;;;;;27.15;9.80;;;;;;;;;;5073855;28;20135;-83
2022/01/27 06:28:31;;;;;;;26.38;7.78;;;;;;;;;;5073550;28;20032;-84
2022/01/27 06:30:57;;;;;;;23.02;8.27;;;;;;;;;;5076671;28;20930;-84
2022/01/27 06:33:23;;;;;;;20.05;7.32;;;;;;;;;;5094219;28;20115;-84
2022/01/27 06:35:50;;;;;;;29.10;9.57;;;;;;;;;;5078283;28;20089;-84
2022/01/27 06:38:17;;;;;;;31.88;10.35;;;;;;;;;;5081081;28;20086;-83
2022/01/27 06:40:43;;;;;;;22.00;7.72;;;;;;;;;;5055777;28;21556;-83
2022/01/27 06:43:13;;;;;;;35.88;10.30;;;;;;;;;;5086061;28;20074;-84
2022/01/27 06:45:39;;;;;;;28.65;9.05;;;;;;;;;;5097768;28;20524;-83
2022/01/27 06:48:05;;;;;;;27.48;9.10;;;;;;;;;;5117987;27;20035;-83
2022/01/27 06:50:32;;;;;;;15.43;6.35;;;;;;;;;;5073311;28;20035;-83
2022/01/27 06:52:58;;;;;;;39.45;13.98;;;;;;;;;;5109845;27;20079;-83
2022/01/27 06:55:25;;;;;;;23.27;9.02;;;;;;;;;;5121701;27;20085;-84
2022/01/27 06:57:51;;;;;;;34.35;9.82;;;;;;;;;;5099083;27;20098;-85
2022/01/27 07:00:18;;;;;;;30.75;9.40;;;;;;;;;;5092802;28;20108;-83
2022/01/27 07:02:44;;;;;;;20.17;6.93;;;;;;;;;;5078458;28;20861;-84
2022/01/27 07:05:14;;;;;;;26.95;9.93;;;;;;;;;;5096637;28;20075;-84
2022/01/27 07:07:40;;;;;;;30.08;9.23;;;;;;;;;;5097847;27;20039;-84
2022/01/27 07:10:06;;;;;;;32.10;9.60;;;;;;;;;;5093102;28;20049;-84
2022/01/27 07:12:33;;;;;;;23.20;6.47;;;;;;;;;;5071929;28;20039;-83
2022/01/27 07:14:59;;;;;;;26.85;8.27;;;;;;;;;;5093201;27;20043;-84
2022/01/27 07:17:25;;;;;;;29.17;9.30;;;;;;;;;;5079861;27;20047;-84
2022/01/27 07:19:51;;;;;;;43.28;10.40;;;;;;;;;;5078804;27;20043;-84
2022/01/27 07:22:18;;;;;;;35.00;8.80;;;;;;;;;;5085791;27;20471;-84
2022/01/27 07:24:44;;;;;;;32.53;8.10;;;;;;;;;;5097809;27;20379;-84
2022/01/27 07:27:10;;;;;;;29.20;7.43;;;;;;;;;;5105278;27;20039;-84
2022/01/27 07:29:36;;;;;;;25.30;6.43;;;;;;;;;;5094133;27;20035;-83
2022/01/27 07:32:03;;;;;;;28.95;7.63;;;;;;;;;;5084579;27;20095;-85
2022/01/27 07:34:29;;;;;;;25.48;6.78;;;;;;;;;;5088968;27;20166;-85
2022/01/27 07:36:59;;;;;;;39.65;10.40;;;;;;;;;;5083440;27;20049;-84
2022/01/27 07:39:25;;;;;;;24.85;6.60;;;;;;;;;;5084256;27;20072;-83
2022/01/27 07:41:51;;;;;;;96.20;12.40;;;;;;;;;;5079041;27;20036;-83
2022/01/27 07:44:17;;;;;;;21.30;6.25;;;;;;;;;;5102969;27;20051;-84
2022/01/27 07:46:43;;;;;;;67.55;9.07;;;;;;;;;;5103533;27;20074;-82
2022/01/27 07:49:09;;;;;;;20.38;6.65;;;;;;;;;;5121748;27;20061;-83
2022/01/27 07:51:36;;;;;;;22.65;5.93;;;;;;;;;;5077346;28;20104;-82
2022/01/27 07:54:02;;;;;;;17.85;5.75;;;;;;;;;;5110063;27;20569;-81
2022/01/27 07:56:28;;;;;;;22.17;5.45;;;;;;;;;;5095187;27;20471;-81
2022/01/27 07:58:54;;;;;;;35.92;8.23;;;;;;;;;;5099619;27;20278;-81
2022/01/27 08:01:20;;;;;;;41.58;7.70;;;;;;;;;;5098749;27;20511;-81
2022/01/27 08:03:46;;;;;;;30.27;7.18;;;;;;;;;;5072566;27;20130;-81
2022/01/27 08:06:13;;;;;;;31.23;6.45;;;;;;;;;;5092940;28;20130;-81
2022/01/27 08:08:39;;;;;;;23.20;6.53;;;;;;;;;;5101371;27;20046;-81
2022/01/27 08:11:05;;;;;;;33.35;6.40;;;;;;;;;;5098351;27;20039;-81
2022/01/27 08:13:32;;;;;;;28.50;7.53;;;;;;;;;;5080198;27;20039;-81
2022/01/27 08:15:58;;;;;;;28.63;7.10;;;;;;;;;;5084850;27;20130;-81
2022/01/27 08:18:24;;;;;;;53.28;9.15;;;;;;;;;;5103000;27;20039;-81
2022/01/27 08:20:50;;;;;;;41.28;7.28;;;;;;;;;;5099233;27;20117;-81
2022/01/27 08:23:16;;;;;;;25.38;6.43;;;;;;;;;;5100977;27;20471;-80
2022/01/27 08:25:48;;;;;;;25.67;6.22;;;;;;;;;;5100378;27;20075;-81
2022/01/27 08:28:25;;;;;;;23.83;6.57;;;;;;;;;;5094895;27;20043;-81
2022/01/27 08:30:53;;;;;;;40.33;6.60;;;;;;;;;;5097733;27;20072;-81
2022/01/27 08:33:20;;;;;;;31.60;6.38;;;;;;;;;;5104627;27;20057;-81
2022/01/27 08:35:46;;;;;;;35.90;6.03;;;;;;;;;;5092787;27;20475;-80
2022/01/27 08:38:14;;;;;;;29.85;6.45;;;;;;;;;;5082887;27;20471;-81
2022/01/27 08:40:40;;;;;;;18.92;4.10;;;7.50;99.90;;;;;;5097705;27;20397;-81
2022/01/27 08:43:08;;;;;;;27.15;4.20;;;;;;;;;;5102391;27;20035;-81
2022/01/27 08:45:34;;;;;;;19.27;4.47;;;;;;;;;;5098134;27;20093;-81
2022/01/27 08:48:01;;;;;;;22.00;5.78;;;;;;;;;;5096671;27;20035;-81
2022/01/27 08:50:28;;;;;;;24.17;5.05;;;;;;;;;;5098198;27;20034;-81
2022/01/27 08:52:55;;;;;;;23.88;5.45;;;;;;;;;;5075217;28;20047;-82
2022/01/27 08:55:21;;;;;;;34.40;6.18;;;;;;;;;;5080619;28;20059;-82
2022/01/27 08:57:48;;;;;;;26.60;6.07;;;;;;;;;;5076926;28;20496;-82
2022/01/27 09:00:14;;;;;;;23.83;5.68;;;;;;;;;;5078482;28;20130;-82
2022/01/27 09:02:40;;;;;;;26.35;5.35;;;;;;;;;;5092144;28;20055;-82
2022/01/27 09:05:07;;;;;;;31.27;6.78;;;;;;;;;;5092039;28;20044;-82
2022/01/27 09:07:34;;;;;;;30.02;4.28;;;;;;;;;;5077430;27;20035;-82
2022/01/27 09:10:00;;;;;;;30.48;5.97;;;;;;;;;;5093974;27;20046;-82
2022/01/27 09:12:26;;;;;;;23.83;5.97;;;;;;;;;;5096193;28;20069;-83
2022/01/27 09:14:52;;;;;;;25.50;4.93;;;;;;;;;;5099566;28;20081;-82
2022/01/27 09:17:19;;;;;;;21.00;4.38;;;;;;;;;;5094006;28;20125;-83
2022/01/27 09:19:46;;;;;;;28.42;4.72;;;;;;;;;;5097166;28;20058;-83
2022/01/27 09:22:15;;;;;;;12.70;3.47;;;;;;;;;;5080348;28;20396;-83
2022/01/27 09:24:58;;;;;;;23.25;5.55;;;;;;;;;;5083372;28;20039;-83
2022/01/27 09:27:25;;;;;;;23.30;4.82;;;;;;;;;;5095022;28;20044;-83
2022/01/27 09:29:51;;;;;;;19.00;4.20;;;;;;;;;;5073206;28;20122;-82
2022/01/27 09:32:18;;;;;;;14.43;3.85;;;;;;;;;;5094410;28;20530;-82
2022/01/27 09:34:45;;;;;;;23.50;4.35;;;;;;;;;;5095624;28;20447;-82
2022/01/27 09:37:11;;;;;;;19.50;4.70;;;;;;;;;;5073794;28;20127;-81
2022/01/27 09:39:38;;;;;;;23.00;4.85;;;;;;;;;;5088048;28;20374;-83
2022/01/27 09:42:06;;;;;;;23.17;5.50;;;;;;;;;;5073677;28;20052;-83
2022/01/27 09:44:34;;;;;;;23.00;6.03;;;;;;;;;;5089413;28;20039;-83
2022/01/27 09:47:03;;;;;;;19.13;4.97;;;;;;;;;;5079271;28;20043;-83
2022/01/27 09:49:40;;;;;;;17.30;3.70;;;;;;;;;;5092682;27;20054;-83
2022/01/27 09:52:06;;;;;;;20.10;4.93;;;;;;;;;;5078354;28;20048;-83
2022/01/27 09:54:33;;;;;;;13.95;3.78;;;8.80;99.90;;;;;;5079116;28;20188;-83
2022/01/27 09:57:00;;;;;;;23.63;5.22;;;;;;;;;;5093833;28;20055;-82
2022/01/27 09:59:27;;;;;;;21.13;4.00;;;;;;;;;;5090814;28;20047;-82
2022/01/27 10:02:01;;;;;;;20.13;5.00;;;;;;;;;;5084234;28;20569;-82
2022/01/27 10:04:43;;;;;;;22.08;3.75;;;;;;;;;;5071218;28;20048;-83
2022/01/27 10:07:09;;;;;;;28.20;5.50;;;;;;;;;;5089794;28;20131;-83
2022/01/27 10:09:36;;;;;;;34.05;5.18;;;;;;;;;;5086552;27;20479;-83
2022/01/27 10:12:04;;;;;;;32.67;5.97;;;;;;;;;;5100603;27;20119;-83
2022/01/27 10:14:35;;;;;;;21.83;5.85;;;;;;;;;;5089039;28;20048;-83
2022/01/27 10:17:04;;;;;;;22.10;4.38;;;;;;;;;;5089688;28;20398;-83
2022/01/27 10:19:30;;;;;;;26.05;5.32;;;;;;;;;;5084775;28;20403;-83
2022/01/27 10:22:04;;;;;;;30.17;5.07;;;;;;;;;;5091527;28;20134;-83
2022/01/27 10:24:32;;;;;;;25.38;5.18;;;;;;;;;;5092897;28;20044;-83
2022/01/27 10:27:21;;;;;;;25.70;3.92;;;;;;;;;;5072169;28;20066;-83
2022/01/27 10:30:05;;;;;;;20.23;4.25;;;;;;;;;;5096366;28;20039;-82
2022/01/27 10:32:38;;;;;;;9.93;2.92;;;;;;;;;;5095712;28;20556;-82
2022/01/27 10:35:04;;;;;;;29.48;4.30;;;;;;;;;;5079406;28;20048;-83
2022/01/27 10:37:49;;;;;;;23.90;4.30;;;;;;;;;;5096425;28;20043;-83
2022/01/27 10:40:20;;;;;;;29.55;5.80;;;;;;;;;;5091520;28;20031;-82
2022/01/27 10:42:57;;;;;;;20.77;4.03;;;;;;;;;;5075872;28;20035;-83
2022/01/27 10:45:23;;;;;;;21.85;4.22;;;;;;;;;;5085614;28;20080;-82
2022/01/27 10:47:50;;;;;;;24.10;4.40;;;;;;;;;;5087456;28;20031;-83
2022/01/27 10:50:16;;;;;;;20.67;3.78;;;;;;;;;;5089361;28;20044;-82
2022/01/27 10:52:51;;;;;;;25.50;4.63;;;;;;;;;;5085647;28;20087;-82
2022/01/27 10:55:19;;;;;;;25.27;5.10;;;;;;;;;;5067399;28;20055;-82
2022/01/27 10:57:50;;;;;;;28.35;4.32;;;;;;;;;;5086012;28;20066;-82
2022/01/27 11:00:16;;;;;;;17.60;3.95;;;;;;;;;;5090777;28;20043;-82
2022/01/27 11:02:53;;;;;;;29.23;4.50;;;;;;;;;;5091654;28;20524;-82
2022/01/27 11:05:20;;;;;;;19.02;3.53;;;;;;;;;;5076430;28;20085;-82
2022/01/27 11:07:47;;;;;;;26.65;4.35;;;;;;;;;;5071655;28;20028;-82
2022/01/27 11:10:17;;;;;;;20.85;5.10;;;;;;;;;;5068103;28;20039;-82
2022/01/27 11:12:44;;;;;;;22.65;4.50;;;;;;;;;;5074225;28;20039;-82
2022/01/27 11:15:16;;;;;;;20.92;4.90;;;;;;;;;;5073330;28;20055;-82
2022/01/27 11:17:43;;;;;;;18.90;3.60;;;;;;;;;;5089956;28;20413;-82
2022/01/27 11:20:28;;;;;;;16.30;4.40;;;;;;;;;;5072247;28;20108;-82
2022/01/27 11:27:53;;;;;;;24.10;4.18;;;;;;;;;;5090946;28;20142;-82
2022/01/27 11:30:20;;;;;;;22.70;4.78;;;;;;;;;;5091307;28;20464;-81
2022/01/27 11:32:50;;;;;;;30.83;5.25;;;;;;;;;;5082145;28;20071;-82
2022/01/27 11:35:23;;;;;;;16.80;3.90;;;9.60;58.70;;;;;;5093983;28;20043;-82
2022/01/27 11:37:51;;;;;;;23.75;5.28;;;;;;;;;;5093766;28;20430;-82
2022/01/27 11:40:20;;;;;;;24.13;6.20;;;;;;;;;;5091849;28;20073;-82
2022/01/27 11:42:56;;;;;;;18.27;3.65;;;;;;;;;;5076016;28;20040;-82
2022/01/27 11:45:22;;;;;;;26.02;4.22;;;;;;;;;;5079745;28;20046;-82
2022/01/27 11:47:49;;;;;;;27.92;4.90;;;;;;;;;;5083670;28;20381;-82
2022/01/27 11:50:32;;;;;;;23.02;4.85;;;;;;;;;;5082946;28;20413;-82
2022/01/27 11:52:58;;;;;;;22.70;4.63;;;;;;;;;;5080092;28;20047;-82
2022/01/27 11:55:24;;;;;;;18.65;5.10;;;;;;;;;;5087731;28;20063;-82
2022/01/27 11:57:51;;;;;;;19.10;4.03;;;;;;;;;;5078283;28;20097;-82
2022/01/27 12:00:22;;;;;;;22.77;4.22;;;;;;;;;;5081065;28;20428;-82
2022/01/27 12:02:57;;;;;;;28.38;4.25;;;;;;;;;;5090333;28;20138;-82
2022/01/27 12:05:23;;;;;;;;;;;;;;;;;;5079645;28;20044;-82
2022/01/27 12:08:08;;;;;;;30.40;4.18;;;;;;;;;;5092838;27;19931;-82
2022/01/27 12:10:47;;;;;;;22.67;4.65;;;;;;;;;;5099270;27;20342;-82
2022/01/27 12:13:38;;;;;;;22.48;4.05;;;;;;;;;;5074717;28;20036;-82
2022/01/27 12:19:16;;;;;;;20.50;3.92;;;;;;;;;;5100177;28;20046;-82
2022/01/27 12:21:45;;;;;;;19.70;3.90;;;;;;;;;;5068045;28;20131;-82
2022/01/27 12:24:16;;;;;;;26.55;3.28;;;;;;;;;;5097111;28;20044;-82
2022/01/27 12:27:01;;;;;;;22.33;4.72;;;;;;;;;;5078405;28;20036;-82
2022/01/27 12:29:41;;;;;;;21.20;4.22;;;;;;;;;;5072555;28;20040;-82
2022/01/27 12:32:07;;;;;;;12.63;2.88;;;;;;;;;;5094087;28;20101;-82
2022/01/27 12:34:33;;;;;;;23.30;3.45;;;;;;;;;;5081312;28;20260;-82
2022/01/27 12:37:05;;;;;;;21.65;2.80;;;;;;;;;;5076384;28;20047;-82
2022/01/27 12:39:33;;;;;;;20.90;2.95;;;;;;;;;;5090585;28;20074;-82
2022/01/27 12:42:00;;;;;;;19.48;3.70;;;;;;;;;;5101008;28;20149;-82
2022/01/27 12:44:28;;;;;;;26.75;4.05;;;;;;;;;;5091075;28;20044;-81
2022/01/27 12:47:02;;;;;;;21.48;3.08;;;;;;;;;;5091443;28;20483;-82
2022/01/27 12:49:40;;;;;;;17.52;3.65;;;;;;;;;;5078082;28;20112;-81
2022/01/27 12:52:08;;;;;;;21.63;3.33;;;;;;;;;;5080156;28;20125;-81
2022/01/27 12:54:35;;;;;;;22.17;3.30;;;;;;;;;;5077792;28;20250;-81
2022/01/27 12:57:01;;;;;;;19.90;2.40;;;;;;;;;;5089392;28;20051;-82
2022/01/27 12:59:32;;;;;;;17.77;2.92;;;10.20;1.00;;;;;;5081963;28;20051;-82
2022/01/27 13:01:59;;;;;;;14.30;2.92;;;;;;;;;;5100967;28;20039;-81
2022/01/27 13:04:26;;;;;;;20.50;3.22;;;;;;;;;;5095420;28;20047;-82
2022/01/27 13:06:54;;;;;;;20.13;3.30;;;;;;;;;;5084692;28;20040;-81
2022/01/27 13:09:20;;;;;;;22.42;3.72;;;;;;;;;;5091505;27;20071;-81
2022/01/27 13:11:48;;;;;;;26.23;4.50;;;;;;;;;;5091229;27;20039;-81
2022/01/27 13:14:14;;;;;;;14.95;3.67;;;;;;;;;;5086164;28;20091;-82
2022/01/27 13:16:43;;;;;;;15.30;2.83;;;9.80;1.00;;;;;;5092763;28;20044;-82
2022/01/27 13:19:21;;;;;;;15.60;2.83;;;;;;;;;;5082648;28;20062;-82
2022/01/27 13:21:53;;;;;;;26.25;3.92;;;;;;;;;;5101666;28;20127;-82
2022/01/27 13:24:20;;;;;;;25.58;4.03;;;;;;;;;;5078425;28;20039;-82
2022/01/27 13:26:46;;;;;;;18.00;3.50;;;;;;;;;;5077082;28;20050;-82
2022/01/27 13:29:14;;;;;;;20.05;3.15;;;9.30;1.00;;;;;;5081594;28;20035;-82
2022/01/27 13:31:41;;;;;;;19.95;2.88;;;;;;;;;;5076220;28;20101;-81
2022/01/27 13:34:07;;;;;;;24.05;5.38;;;;;;;;;;5090147;28;20040;-82
2022/01/27 13:36:35;;;;;;;26.35;4.15;;;;;;;;;;5093442;28;20036;-82
2022/01/27 13:41:36;;;;;;;29.45;3.40;;;;;;;;;;5085267;28;20523;-81
2022/01/27 13:44:05;;;;;;;26.15;4.38;;;;;;;;;;5092765;28;20216;-81
2022/01/27 13:46:40;;;;;;;22.58;3.20;;;;;;;;;;5079293;28;20136;-81
2022/01/27 13:49:13;;;;;;;38.03;4.82;;;;;;;;;;5079840;28;20489;-82
2022/01/27 13:52:05;;;;;;;30.67;4.72;;;;;;;;;;5084852;28;20052;-82
2022/01/27 13:54:31;;;;;;;21.00;3.85;;;;;;;;;;5086848;28;20064;-81
2022/01/27 13:57:05;;;;;;;23.58;3.88;;;;;;;;;;5095931;28;20051;-82
2022/01/27 14:00:12;;;;;;;16.50;3.30;;;;;;;;;;5094018;28;20591;-82
2022/01/27 14:02:40;;;;;;;12.77;2.75;;;;;;;;;;5054763;28;20048;-81
2022/01/27 14:05:17;;;;;;;17.50;3.78;;;11.80;1.00;;;;;;5088679;28;20050;-81
2022/01/27 14:07:52;;;;;;;22.27;2.88;;;11.80;1.00;;;;;;5096844;27;20085;-82
2022/01/27 14:10:20;;;;;;;15.88;2.72;;;;;;;;;;5096598;27;20039;-81
2022/01/27 14:12:59;;;;;;;22.10;3.90;;;;;;;;;;5078954;28;20123;-82
2022/01/27 14:15:42;;;;;;;18.65;3.33;;;;;;;;;;5092797;28;20051;-81
2022/01/27 14:18:09;;;;;;;16.75;3.63;;;;;;;;;;5096698;28;20043;-81
2022/01/27 14:20:36;;;;;;;22.45;3.90;;;;;;;;;;5092252;28;20052;-81
2022/01/27 14:23:20;;;;;;;18.77;3.20;;;11.50;1.00;;;;;;5091472;28;20119;-82
2022/01/27 14:25:56;;;;;;;25.35;3.88;;;;;;;;;;5078928;28;20046;-82
2022/01/27 14:28:23;;;;;;;26.13;3.95;;;;;;;;;;5091148;28;20075;-81
2022/01/27 14:30:49;;;;;;;11.45;2.60;;;;;;;;;;5085734;28;20044;-81
2022/01/27 14:33:15;;;;;;;17.35;2.92;;;;;;;;;;5093732;28;20044;-81
2022/01/27 14:35:42;;;;;;;23.30;3.42;;;;;;;;;;5097571;28;20031;-81
2022/01/27 14:38:09;;;;;;;20.23;2.97;;;10.80;1.00;;;;;;5093390;28;20733;-81
2022/01/27 14:40:35;;;;;;;24.95;4.53;;;;;;;;;;5090990;28;20571;-82
2022/01/27 14:43:02;;;;;;;17.33;2.58;;;;;;;;;;5095162;28;20130;-81
2022/01/27 14:45:29;;;;;;;17.35;2.85;;;;;;;;;;5087264;28;20040;-81
2022/01/27 14:48:01;;;;;;;18.75;3.75;;;;;;;;;;5091863;27;20504;-81
2022/01/27 14:50:27;;;;;;;19.63;2.85;;;;;;;;;;5096478;28;20070;-83
2022/01/27 14:52:55;;;;;;;20.10;4.03;;;;;;;;;;5093819;28;20082;-82
2022/01/27 14:55:22;;;;;;;21.70;3.67;;;;;;;;;;5072597;28;20170;-82
2022/01/27 14:57:48;;;;;;;26.77;4.22;;;;;;;;;;5092346;28;20085;-83
2022/01/27 15:00:17;;;;;;;31.13;4.72;;;10.10;1.00;;;;;;5092496;28;20114;-82
2022/01/27 15:02:43;;;;;;;19.85;4.20;;;;;;;;;;5082946;28;20038;-82
2022/01/27 15:05:10;;;;;;;17.67;3.40;;;;;;;;;;5094468;28;20401;-82
2022/01/27 15:07:41;;;;;;;22.15;3.60;;;;;;;;;;5073483;28;20077;-82
2022/01/27 15:10:09;;;;;;;15.90;3.00;;;;;;;;;;5070408;28;20031;-82
2022/01/27 15:12:35;;;;;;;31.52;4.30;;;;;;;;;;5073753;28;20036;-82
2022/01/27 15:20:32;;;;;;;28.30;4.70;;;;;;;;;;5091877;28;20424;-82
2022/01/27 15:22:59;;;;;;;27.42;3.55;;;;;;;;;;5091643;28;20044;-82